Time;durP1;ratioP1;P1;durP2;ratioP2;P2;SDS_P1;SDS_P2;PMS_P1;PMS_P2;Temp;Humidity;BMP_temperature;BMP_pressure;BME280_temperature;BME280_humidity;BME280_pressure;Samples;Min_cycle;Max_cycle;Signal;HPM_P1;HPM_P2
2022/10/04 00:02:25;;;;;;;16.95;5.30;;;11.60;99.90;;;;;;4976840;28;20131;-91
2022/10/04 00:05:00;;;;;;;17.02;6.20;;;11.70;99.90;;;;;;4976232;28;20042;-91
2022/10/04 00:07:31;;;;;;;21.33;6.28;;;11.70;99.90;;;;;;4961386;28;20084;-91
2022/10/04 00:10:03;;;;;;;25.25;7.22;;;11.60;99.90;;;;;;4957049;28;20104;-91
2022/10/04 00:12:37;;;;;;;17.48;6.57;;;11.70;99.90;;;;;;4957645;28;20459;-91
2022/10/04 00:15:15;;;;;;;22.35;6.72;;;11.50;99.90;;;;;;4957317;28;20252;-91
2022/10/04 00:17:41;;;;;;;22.17;7.82;;;11.70;99.90;;;;;;4958037;28;20061;-91
2022/10/04 00:20:47;;;;;;;18.33;6.50;;;11.60;99.90;;;;;;4956595;28;20108;-91
2022/10/04 00:23:27;;;;;;;22.15;7.88;;;11.60;99.90;;;;;;4937698;28;20051;-91
2022/10/04 00:25:59;;;;;;;21.70;6.85;;;11.50;99.90;;;;;;4954423;28;20042;-90
2022/10/04 00:28:25;;;;;;;17.33;6.47;;;11.50;99.90;;;;;;4938239;28;20098;-90
2022/10/04 00:31:03;;;;;;;23.90;7.55;;;11.60;99.90;;;;;;4937581;28;20044;-91
2022/10/04 00:33:37;;;;;;;21.23;7.22;;;11.60;99.90;;;;;;4938126;28;20049;-90
2022/10/04 00:36:22;;;;;;;18.60;7.13;;;11.60;99.90;;;;;;4937077;28;20046;-91
2022/10/04 00:39:07;;;;;;;26.17;8.23;;;11.50;99.90;;;;;;4937592;28;20057;-90
2022/10/04 00:41:43;;;;;;;21.83;8.10;;;11.50;99.90;;;;;;4937630;28;20435;-90
2022/10/04 00:44:17;;;;;;;25.90;8.07;;;11.60;99.90;;;;;;4937332;28;20049;-91
2022/10/04 00:46:45;;;;;;;30.40;8.05;;;11.60;99.90;;;;;;4937381;28;20440;-90
2022/10/04 00:49:12;;;;;;;24.23;8.35;;;11.70;99.90;;;;;;4937579;28;20109;-91
2022/10/04 00:52:00;;;;;;;19.98;7.63;;;11.70;99.90;;;;;;4936276;28;20138;-92
2022/10/04 00:54:33;;;;;;;24.50;8.68;;;11.60;99.90;;;;;;4937084;28;20050;-91
2022/10/04 00:57:04;;;;;;;20.20;7.43;;;11.70;99.90;;;;;;4920625;29;20058;-91
2022/10/04 00:59:37;;;;;;;21.05;8.32;;;11.60;99.90;;;;;;4918571;29;20138;-91
2022/10/04 01:02:14;;;;;;;23.53;9.30;;;11.60;99.90;;;;;;4910116;29;20050;-91
2022/10/04 01:04:44;;;;;;;20.50;8.43;;;11.60;99.90;;;;;;4917944;29;20051;-91
2022/10/04 01:07:13;;;;;;;23.58;8.23;;;11.60;99.90;;;;;;4918413;29;20073;-91
2022/10/04 01:09:49;;;;;;;28.90;8.63;;;11.70;99.90;;;;;;4918012;29;20102;-92
2022/10/04 01:12:31;;;;;;;21.08;8.40;;;11.70;99.90;;;;;;4933698;29;20050;-91
2022/10/04 01:15:06;;;;;;;17.50;7.90;;;11.60;99.90;;;;;;4918482;29;20057;-91
2022/10/04 01:17:32;;;;;;;20.05;9.40;;;11.70;99.90;;;;;;4918490;29;20039;-91
2022/10/04 01:19:58;;;;;;;24.27;9.02;;;11.60;99.90;;;;;;4916810;29;20058;-91
2022/10/04 01:22:41;;;;;;;24.50;8.73;;;11.70;99.90;;;;;;4902125;29;20057;-91
2022/10/04 01:25:07;;;;;;;28.15;8.40;;;11.70;99.90;;;;;;4933767;29;20050;-91
2022/10/04 01:27:40;;;;;;;25.77;8.63;;;11.70;99.90;;;;;;4933954;29;20130;-92
2022/10/04 01:30:10;;;;;;;21.00;8.57;;;11.60;99.90;;;;;;4933779;29;20058;-91
2022/10/04 01:32:39;;;;;;;24.85;8.98;;;11.60;99.90;;;;;;4933427;29;20133;-90
2022/10/04 01:35:08;;;;;;;22.60;8.75;;;11.60;99.90;;;;;;4933589;29;20141;-91
2022/10/04 01:37:34;;;;;;;25.38;8.90;;;11.70;99.90;;;;;;4933841;29;20043;-91
2022/10/04 01:40:00;;;;;;;23.17;8.27;;;11.60;99.90;;;;;;4933425;29;20078;-91
2022/10/04 01:42:36;;;;;;;20.45;8.50;;;11.60;99.90;;;;;;4934157;29;20047;-90
2022/10/04 01:45:11;;;;;;;28.85;9.07;;;11.60;99.90;;;;;;4933582;29;20097;-90
2022/10/04 01:47:43;;;;;;;26.95;10.35;;;11.70;99.90;;;;;;4933694;29;20069;-90
2022/10/04 01:50:17;;;;;;;25.23;9.23;;;11.70;99.90;;;;;;4932912;29;20039;-91
2022/10/04 01:52:49;;;;;;;28.98;9.93;;;12.10;99.90;;;;;;4934099;29;20073;-91
2022/10/04 01:55:19;;;;;;;26.95;9.45;;;11.60;99.90;;;;;;4932819;29;20058;-91
2022/10/04 01:57:53;;;;;;;23.92;9.23;;;12.10;99.90;;;;;;4933756;29;20129;-91
2022/10/04 02:00:22;;;;;;;25.90;8.98;;;12.00;99.90;;;;;;4934312;29;20043;-91
2022/10/04 02:03:00;;;;;;;23.20;9.65;;;11.80;99.90;;;;;;4937190;29;20106;-91
2022/10/04 02:05:31;;;;;;;22.45;8.95;;;11.80;99.90;;;;;;4936923;29;20062;-91
2022/10/04 02:08:03;;;;;;;30.60;9.95;;;11.80;99.90;;;;;;4936650;29;20537;-91
2022/10/04 02:10:32;;;;;;;25.13;9.32;;;11.70;99.90;;;;;;4936882;29;20118;-90
2022/10/04 02:12:59;;;;;;;19.65;9.15;;;11.70;99.90;;;;;;4937094;29;20051;-91
2022/10/04 02:15:25;;;;;;;24.15;9.80;;;11.70;99.90;;;;;;4935904;29;20055;-91
2022/10/04 02:17:53;;;;;;;27.88;9.18;;;11.70;99.90;;;;;;4940034;28;20047;-90
2022/10/04 02:20:27;;;;;;;29.17;9.55;;;11.70;99.90;;;;;;4939599;28;20043;-91
2022/10/04 02:23:01;;;;;;;18.15;8.75;;;11.70;99.90;;;;;;4939440;28;20059;-91
2022/10/04 02:25:28;;;;;;;27.45;9.18;;;11.70;99.90;;;;;;4956093;28;20055;-90
2022/10/04 02:27:54;;;;;;;17.35;8.73;;;11.60;99.90;;;;;;4939765;28;20129;-91
2022/10/04 02:30:20;;;;;;;32.97;9.68;;;11.60;99.90;;;;;;4939763;28;20054;-90
2022/10/04 02:32:56;;;;;;;25.50;9.13;;;11.60;99.90;;;;;;4956217;28;20652;-90
2022/10/04 02:35:27;;;;;;;30.55;9.18;;;11.60;99.90;;;;;;4939367;28;20050;-91
2022/10/04 02:38:05;;;;;;;17.95;8.50;;;11.50;99.90;;;;;;4939352;28;20043;-91
2022/10/04 02:40:39;;;;;;;26.77;9.57;;;11.50;99.90;;;;;;4940274;28;20475;-91
2022/10/04 02:43:13;;;;;;;20.48;9.25;;;11.40;99.90;;;;;;4939450;28;20151;-92
2022/10/04 02:45:58;;;;;;;22.90;9.45;;;11.50;99.90;;;;;;4940037;28;20154;-92
2022/10/04 02:48:31;;;;;;;23.48;8.80;;;11.50;99.90;;;;;;4939889;28;20046;-90
2022/10/04 02:51:16;;;;;;;23.98;9.32;;;11.50;99.90;;;;;;4937679;28;20497;-90
2022/10/04 02:53:50;;;;;;;25.70;9.57;;;11.40;99.90;;;;;;4955450;28;20042;-90
2022/10/04 02:56:17;;;;;;;27.30;9.38;;;11.50;99.90;;;;;;4936044;29;20051;-90
2022/10/04 02:58:43;;;;;;;31.70;9.63;;;11.30;99.90;;;;;;4919760;29;20419;-91
2022/10/04 03:01:25;;;;;;;24.40;9.25;;;11.40;99.90;;;;;;4920298;29;20058;-90
2022/10/04 03:03:52;;;;;;;17.40;10.25;;;11.20;99.90;;;;;;4935878;29;20101;-90
2022/10/04 03:06:21;;;;;;;23.10;9.13;;;11.40;99.90;;;;;;4919271;29;20039;-91
2022/10/04 03:08:54;;;;;;;23.58;9.43;;;11.30;99.90;;;;;;4920191;29;20047;-90
2022/10/04 03:11:23;;;;;;;27.80;10.13;;;11.30;99.90;;;;;;4919881;29;20494;-90
2022/10/04 03:13:53;;;;;;;18.83;9.52;;;11.40;99.90;;;;;;4920233;29;20058;-91
2022/10/04 03:16:19;;;;;;;25.38;9.90;;;11.40;99.90;;;;;;4919855;29;20058;-90
2022/10/04 03:18:47;;;;;;;26.13;9.82;;;11.30;99.90;;;;;;4919660;29;20404;-90
2022/10/04 03:21:16;;;;;;;29.23;9.38;;;11.30;99.90;;;;;;4919110;29;20062;-90
2022/10/04 03:23:42;;;;;;;26.15;9.05;;;11.40;99.90;;;;;;4920065;29;20047;-90
2022/10/04 03:26:20;;;;;;;23.63;8.85;;;11.40;99.90;;;;;;4918719;29;20050;-90
2022/10/04 03:28:46;;;;;;;21.90;9.00;;;11.40;99.90;;;;;;4919478;29;20062;-90
2022/10/04 03:31:14;;;;;;;25.77;9.48;;;11.30;99.90;;;;;;4919810;29;20047;-90
2022/10/04 03:33:42;;;;;;;20.02;9.18;;;11.30;99.90;;;;;;4935008;29;20545;-90
2022/10/04 03:36:13;;;;;;;26.67;9.10;;;11.20;99.90;;;;;;4935006;29;20511;-91
2022/10/04 03:38:39;;;;;;;25.38;9.48;;;11.30;99.90;;;;;;4919730;29;20047;-91
2022/10/04 03:41:06;;;;;;;24.90;8.95;;;11.30;99.90;;;;;;4918989;29;20098;-90
2022/10/04 03:43:36;;;;;;;21.67;8.55;;;11.10;99.90;;;;;;4920099;29;20047;-91
2022/10/04 03:46:04;;;;;;;31.23;8.63;;;11.20;99.90;;;;;;4919016;29;20661;-90
2022/10/04 03:48:33;;;;;;;26.60;8.60;;;11.30;99.90;;;;;;4919913;29;20456;-91
2022/10/04 03:51:01;;;;;;;32.00;9.13;;;11.10;99.90;;;;;;4934848;29;20078;-90
2022/10/04 03:53:30;;;;;;;23.58;9.10;;;11.00;99.90;;;;;;4934703;29;20058;-90
2022/10/04 03:55:58;;;;;;;22.83;8.32;;;11.10;99.90;;;;;;4919231;29;20047;-90
2022/10/04 03:58:25;;;;;;;22.65;8.98;;;11.10;99.90;;;;;;4919735;29;20080;-90
2022/10/04 04:01:04;;;;;;;24.63;8.32;;;11.10;99.90;;;;;;4919072;29;20043;-91
2022/10/04 04:03:44;;;;;;;25.25;8.13;;;11.00;99.90;;;;;;4935479;29;20393;-90
2022/10/04 04:06:16;;;;;;;24.17;8.18;;;11.00;99.90;;;;;;4911539;29;20051;-90
2022/10/04 04:08:44;;;;;;;17.55;8.50;;;11.00;99.90;;;;;;4918836;29;20047;-90
2022/10/04 04:11:23;;;;;;;18.98;8.27;;;11.10;99.90;;;;;;4918701;29;20086;-90
2022/10/04 04:13:59;;;;;;;23.38;8.38;;;11.10;99.90;;;;;;4918876;29;20130;-90
2022/10/04 04:16:26;;;;;;;21.13;8.73;;;11.10;99.90;;;;;;4919295;29;20067;-90
2022/10/04 04:18:53;;;;;;;28.20;8.45;;;11.00;99.90;;;;;;4920472;28;20042;-90
2022/10/04 04:21:23;;;;;;;20.17;9.70;;;11.10;99.90;;;;;;4954463;28;20093;-90
2022/10/04 04:24:00;;;;;;;22.25;9.10;;;11.10;99.90;;;;;;4956376;28;20484;-89
2022/10/04 04:26:42;;;;;;;21.08;9.35;;;11.00;99.90;;;;;;4946668;28;20142;-91
2022/10/04 04:29:21;;;;;;;25.63;9.75;;;11.10;99.90;;;;;;4937375;28;20066;-91
2022/10/04 04:31:54;;;;;;;30.27;9.68;;;11.00;99.90;;;;;;4938865;28;20043;-90
2022/10/04 04:34:28;;;;;;;24.25;9.13;;;11.10;99.90;;;;;;4937988;28;20062;-91
2022/10/04 04:37:03;;;;;;;21.98;9.95;;;11.00;99.90;;;;;;4936819;28;20054;-90
2022/10/04 04:39:37;;;;;;;33.30;9.93;;;11.20;99.90;;;;;;4937399;28;20057;-91
2022/10/04 04:42:11;;;;;;;23.70;10.25;;;11.00;99.90;;;;;;4937293;28;20039;-91
2022/10/04 04:44:45;;;;;;;30.75;11.02;;;11.00;99.90;;;;;;4938279;28;20490;-91
2022/10/04 04:47:24;;;;;;;26.30;10.35;;;10.80;99.90;;;;;;4937897;28;20043;-91
2022/10/04 04:49:49;;;;;;;21.75;11.07;;;11.00;99.90;;;;;;4936654;28;20046;-91
2022/10/04 04:52:19;;;;;;;29.65;10.65;;;10.80;99.90;;;;;;4938042;28;20510;-91
2022/10/04 04:54:46;;;;;;;27.35;10.57;;;10.80;99.90;;;;;;4937505;28;20054;-91
2022/10/04 04:57:15;;;;;;;27.23;10.55;;;10.80;99.90;;;;;;4937534;28;20070;-90
2022/10/04 04:59:47;;;;;;;23.67;10.70;;;10.90;99.90;;;;;;4953622;28;20490;-91
2022/10/04 05:02:29;;;;;;;22.23;10.52;;;10.80;99.90;;;;;;4957202;28;20054;-91
2022/10/04 05:05:16;;;;;;;21.70;10.75;;;10.90;99.90;;;;;;4971787;28;20050;-91
2022/10/04 05:08:01;;;;;;;25.83;10.52;;;10.90;99.90;;;;;;4973506;28;20042;-91
2022/10/04 05:10:30;;;;;;;21.17;10.43;;;10.80;99.90;;;;;;4972627;28;20710;-92
2022/10/04 05:12:58;;;;;;;24.77;11.32;;;10.80;99.90;;;;;;4972523;28;20042;-91
2022/10/04 05:15:25;;;;;;;28.33;11.18;;;10.70;99.90;;;;;;4963007;28;20046;-91
2022/10/04 05:17:51;;;;;;;21.40;10.80;;;10.60;99.90;;;;;;4933584;29;20043;-90
2022/10/04 05:20:19;;;;;;;24.08;11.52;;;10.70;99.90;;;;;;4933966;29;20051;-91
2022/10/04 05:22:48;;;;;;;29.52;11.95;;;10.60;99.90;;;;;;4933964;29;20221;-91
2022/10/04 05:25:25;;;;;;;34.75;12.20;;;10.50;99.90;;;;;;4949726;29;20051;-91
2022/10/04 05:27:52;;;;;;;27.73;12.57;;;10.60;99.90;;;;;;4934488;29;20061;-89
2022/10/04 05:30:50;;;;;;;27.77;12.70;;;10.50;99.90;;;;;;4933843;29;20070;-90
2022/10/04 05:33:25;;;;;;;22.30;12.38;;;10.50;99.90;;;;;;4933088;29;20051;-90
2022/10/04 05:36:16;;;;;;;31.48;12.30;;;10.50;99.90;;;;;;4935469;29;20086;-90
2022/10/04 05:38:55;;;;;;;29.00;12.70;;;10.50;99.90;;;;;;4937262;29;20110;-89
2022/10/04 05:41:39;;;;;;;36.08;13.02;;;10.50;99.90;;;;;;4937927;29;20075;-89
2022/10/04 05:44:26;;;;;;;28.17;13.13;;;10.40;99.90;;;;;;4929218;28;20487;-89
2022/10/04 05:46:56;;;;;;;24.73;13.35;;;10.60;99.90;;;;;;4930479;28;20043;-89
2022/10/04 05:49:24;;;;;;;28.52;13.68;;;10.40;99.90;;;;;;4936867;28;20084;-88
2022/10/04 05:51:55;;;;;;;23.52;13.73;;;10.40;99.90;;;;;;4929987;28;20041;-89
2022/10/04 05:54:25;;;;;;;35.00;14.10;;;10.40;99.90;;;;;;4946478;28;20078;-89
2022/10/04 05:57:19;;;;;;;38.88;14.10;;;10.50;99.90;;;;;;4931911;28;20475;-89
2022/10/04 05:59:59;;;;;;;26.10;14.00;;;10.50;99.90;;;;;;4932120;28;20046;-89
2022/10/04 06:02:53;;;;;;;24.58;13.32;;;10.30;99.90;;;;;;4946049;28;20038;-90
2022/10/04 06:05:40;;;;;;;27.45;13.57;;;10.40;99.90;;;;;;4930450;28;20127;-89
2022/10/04 06:08:15;;;;;;;32.05;13.88;;;10.40;99.90;;;;;;4929701;28;20487;-88
2022/10/04 06:10:59;;;;;;;27.80;13.32;;;10.40;99.90;;;;;;4951934;28;20074;-89
2022/10/04 06:13:44;;;;;;;24.98;13.85;;;10.40;99.90;;;;;;4956211;28;20050;-89
2022/10/04 06:16:15;;;;;;;31.42;14.60;;;10.30;99.90;;;;;;4937489;29;20039;-89
2022/10/04 06:19:13;;;;;;;25.75;13.30;;;10.40;99.90;;;;;;4937019;29;20055;-89
2022/10/04 06:21:48;;;;;;;27.00;14.00;;;10.30;99.90;;;;;;4934443;28;20062;-89
2022/10/04 06:24:19;;;;;;;25.75;14.23;;;10.30;99.90;;;;;;4937001;29;20059;-89
2022/10/04 06:26:52;;;;;;;23.08;13.77;;;10.20;99.90;;;;;;4937294;29;20066;-88
2022/10/04 06:29:24;;;;;;;32.75;14.73;;;10.20;99.90;;;;;;4936131;29;20086;-89
2022/10/04 06:31:59;;;;;;;28.25;14.75;;;10.30;99.90;;;;;;4920939;29;20047;-92
2022/10/04 06:34:43;;;;;;;29.52;14.02;;;10.20;99.90;;;;;;4921908;28;20090;-90
2022/10/04 06:37:22;;;;;;;23.70;13.60;;;10.30;99.90;;;;;;4950545;28;20085;-89
2022/10/04 06:40:05;;;;;;;27.42;13.05;;;10.40;99.90;;;;;;4974747;28;20093;-89
2022/10/04 06:43:03;;;;;;;31.90;13.50;;;10.30;99.90;;;;;;4958872;28;20437;-89
2022/10/04 06:45:57;;;;;;;29.42;13.55;;;10.40;99.90;;;;;;4960663;28;20381;-90
2022/10/04 06:48:42;;;;;;;30.00;13.88;;;10.30;99.90;;;;;;4920536;29;20051;-88
2022/10/04 06:51:22;;;;;;;31.60;13.77;;;10.40;99.90;;;;;;4919938;29;20053;-90
2022/10/04 06:54:13;;;;;;;26.30;13.43;;;10.40;99.90;;;;;;4920682;29;20047;-89
2022/10/04 06:56:48;;;;;;;29.95;14.25;;;10.50;99.90;;;;;;4920161;29;20043;-89
2022/10/04 06:59:40;;;;;;;24.80;13.73;;;10.50;99.90;;;;;;4920273;29;20051;-90
2022/10/04 07:02:17;;;;;;;33.83;13.43;;;10.70;99.90;;;;;;4920708;29;20048;-90
2022/10/04 07:04:57;;;;;;;24.10;13.25;;;10.90;99.90;;;;;;4930279;28;20061;-90
2022/10/04 07:07:35;;;;;;;28.75;14.05;;;10.90;99.90;;;;;;4956834;28;20051;-90
2022/10/04 07:10:16;;;;;;;23.38;12.50;;;11.00;99.90;;;;;;4956040;28;20077;-89
2022/10/04 07:12:47;;;;;;;23.90;13.10;;;11.20;99.90;;;;;;4940245;28;20077;-90
2022/10/04 07:15:27;;;;;;;27.20;13.68;;;11.20;99.90;;;;;;4956037;28;20105;-89
2022/10/04 07:17:57;;;;;;;24.90;13.13;;;11.40;99.90;;;;;;4938736;28;20053;-91
2022/10/04 07:20:28;;;;;;;25.35;12.73;;;11.40;99.90;;;;;;4938623;28;20039;-89
2022/10/04 07:23:04;;;;;;;23.25;11.88;;;11.50;99.90;;;;;;4938521;28;20051;-90
2022/10/04 07:25:35;;;;;;;21.23;11.70;;;11.60;99.90;;;;;;4938910;28;20134;-90
2022/10/04 07:31:18;;;;;;;25.35;12.40;;;11.70;99.90;;;;;;4969719;28;20050;-88
2022/10/04 07:33:50;;;;;;;20.83;11.90;;;11.60;99.90;;;;;;4954538;28;20084;-89
2022/10/04 07:36:25;;;;;;;23.45;11.48;;;11.70;99.90;;;;;;4954176;28;20043;-89
2022/10/04 07:38:59;;;;;;;19.02;11.48;;;11.80;99.90;;;;;;4953653;28;20051;-89
2022/10/04 07:41:29;;;;;;;28.60;12.68;;;11.70;99.90;;;;;;4938215;28;20043;-89
2022/10/04 07:44:03;;;;;;;22.92;12.48;;;11.90;99.90;;;;;;4954551;28;20047;-89
2022/10/04 07:46:36;;;;;;;21.17;12.27;;;12.10;99.90;;;;;;4937851;28;20058;-89
2022/10/04 07:49:02;;;;;;;24.58;11.73;;;12.30;99.90;;;;;;4953765;28;20058;-89
2022/10/04 07:51:39;;;;;;;18.88;11.05;;;12.60;99.90;;;;;;4953591;28;20050;-89
2022/10/04 07:54:15;;;;;;;15.25;10.90;;;12.70;99.90;;;;;;4930368;28;20078;-89
2022/10/04 07:56:58;;;;;;;25.10;10.88;;;12.70;99.90;;;;;;4953672;28;20054;-89
2022/10/04 07:59:35;;;;;;;21.33;11.10;;;12.80;99.90;;;;;;4952646;28;20142;-89
2022/10/04 08:02:21;;;;;;;25.15;11.10;;;12.80;99.90;;;;;;4937884;28;20058;-89
2022/10/04 08:05:16;;;;;;;16.27;10.25;;;12.90;99.90;;;;;;4933582;29;20074;-89
2022/10/04 08:07:58;;;;;;;23.15;9.82;;;12.80;99.90;;;;;;4918558;29;20050;-89
2022/10/04 08:10:49;;;;;;;18.92;10.05;;;12.90;99.90;;;;;;4919506;29;20051;-95
2022/10/04 08:13:33;;;;;;;21.23;10.35;;;12.80;99.90;;;;;;4918801;29;20070;-94
2022/10/04 08:16:09;;;;;;;21.55;10.27;;;12.80;99.90;;;;;;4918813;29;20074;-96
2022/10/04 08:18:36;;;;;;;28.27;11.18;;;12.70;99.90;;;;;;4919742;29;20130;-89
2022/10/04 08:21:07;;;;;;;16.92;10.55;;;12.70;99.90;;;;;;4936764;28;20189;-88
2022/10/04 08:23:52;;;;;;;16.27;9.93;;;12.70;99.90;;;;;;4954064;28;20085;-88
2022/10/04 08:26:44;;;;;;;20.85;10.73;;;12.60;99.90;;;;;;4937608;28;20043;-89
2022/10/04 08:32:22;;;;;;;23.35;11.85;;;12.50;99.90;;;;;;4953103;28;20051;-89
2022/10/04 08:34:56;;;;;;;20.30;11.02;;;12.40;99.90;;;;;;4936012;28;20054;-89
2022/10/04 08:37:53;;;;;;;17.13;11.10;;;12.60;99.90;;;;;;4937569;28;20046;-89
2022/10/04 08:40:59;;;;;;;22.83;11.35;;;12.80;99.90;;;;;;4936885;28;20097;-90
2022/10/04 08:43:49;;;;;;;16.38;11.48;;;13.00;99.90;;;;;;4936719;28;20039;-89
2022/10/04 08:46:39;;;;;;;21.23;10.23;;;13.20;99.90;;;;;;4936669;28;20038;-88
2022/10/04 08:49:27;;;;;;;22.02;10.48;;;13.30;99.90;;;;;;4936672;28;20462;-88
2022/10/04 08:52:07;;;;;;;21.90;10.23;;;13.40;99.90;;;;;;4936874;28;20141;-89
2022/10/04 08:54:43;;;;;;;17.65;9.30;;;13.50;99.90;;;;;;4937768;28;20047;-89
2022/10/04 08:57:29;;;;;;;16.52;9.20;;;13.70;99.90;;;;;;4937020;28;20130;-89
2022/10/04 09:00:04;;;;;;;22.50;9.48;;;13.80;99.90;;;;;;4936982;28;20354;-89
2022/10/04 09:02:52;;;;;;;15.23;8.98;;;13.90;99.90;;;;;;4936457;28;20047;-88
2022/10/04 09:05:45;;;;;;;16.10;7.68;;;14.00;99.90;;;;;;4936631;28;20479;-90
2022/10/04 09:08:28;;;;;;;18.13;8.40;;;14.10;99.90;;;;;;4937672;28;20046;-90
2022/10/04 09:11:34;;;;;;;24.20;9.23;;;14.20;99.90;;;;;;4936422;28;20051;-90
2022/10/04 09:14:26;;;;;;;23.02;8.18;;;14.20;99.90;;;;;;4937351;28;20526;-89
2022/10/04 09:17:14;;;;;;;17.33;7.03;;;14.30;99.90;;;;;;4936036;28;20046;-88
2022/10/04 09:19:54;;;;;;;14.02;6.88;;;14.30;99.90;;;;;;4952986;28;20047;-89
2022/10/04 09:22:34;;;;;;;12.07;6.43;;;14.40;99.90;;;;;;4953206;28;20546;-89
2022/10/04 09:25:11;;;;;;;15.50;6.38;;;14.40;99.90;;;;;;4936332;28;20614;-89
2022/10/04 09:28:02;;;;;;;15.50;6.50;;;14.40;99.90;;;;;;4937218;28;20046;-89
2022/10/04 09:31:07;;;;;;;22.52;6.15;;;14.50;99.90;;;;;;4937060;28;20057;-89
2022/10/04 09:33:48;;;;;;;13.40;6.00;;;14.60;99.90;;;;;;4936948;28;20083;-89
2022/10/04 09:36:32;;;;;;;14.95;6.18;;;14.70;99.90;;;;;;4935941;28;20479;-89
2022/10/04 09:39:07;;;;;;;11.48;5.70;;;14.80;99.90;;;;;;4936134;28;20499;-90
2022/10/04 09:42:07;;;;;;;14.68;6.38;;;14.80;99.90;;;;;;4936544;28;20062;-89
2022/10/04 09:44:54;;;;;;;10.50;5.13;;;14.90;99.90;;;;;;4936236;28;20130;-89
2022/10/04 09:47:44;;;;;;;13.70;5.40;;;14.90;99.90;;;;;;4936738;28;20149;-89
2022/10/04 09:50:38;;;;;;;12.77;5.28;;;14.90;99.90;;;;;;4935637;28;20051;-89
2022/10/04 09:53:16;;;;;;;9.20;5.40;;;14.90;99.90;;;;;;4936175;28;20047;-89
2022/10/04 09:56:07;;;;;;;13.98;6.03;;;15.00;99.90;;;;;;4936299;28;20081;-88
2022/10/04 09:58:45;;;;;;;12.00;5.65;;;15.10;99.90;;;;;;4936479;28;20141;-90
2022/10/04 10:01:32;;;;;;;11.23;5.30;;;15.10;99.90;;;;;;4936282;28;20527;-89
2022/10/04 10:04:14;;;;;;;17.85;6.28;;;15.10;99.90;;;;;;4936244;28;20518;-89
2022/10/04 10:07:01;;;;;;;16.63;5.90;;;15.00;99.90;;;;;;4934954;28;20042;-89
2022/10/04 10:15:41;;;;;;;14.55;5.63;;;15.10;99.90;;;;;;4952117;28;20047;-90
2022/10/04 10:18:14;;;;;;;14.18;5.07;;;15.10;99.90;;;;;;4935935;28;20137;-89
2022/10/04 10:20:40;;;;;;;;;;;15.30;99.90;;;;;;4935131;28;20160;-89
2022/10/04 10:23:26;;;;;;;11.75;4.63;;;15.40;99.90;;;;;;4939973;28;19980;-90
2022/10/04 10:26:21;;;;;;;17.30;4.88;;;15.50;99.90;;;;;;4939678;28;20058;-90
2022/10/04 10:29:17;;;;;;;12.73;4.55;;;15.50;99.90;;;;;;4939141;28;20051;-89
2022/10/04 10:32:17;;;;;;;12.40;4.38;;;15.50;99.90;;;;;;4939847;28;20043;-89
2022/10/04 10:34:50;;;;;;;12.75;4.57;;;15.60;99.90;;;;;;4939160;28;20050;-88
2022/10/04 10:37:56;;;;;;;10.30;4.18;;;15.70;99.90;;;;;;4940185;28;20054;-89
2022/10/04 10:40:40;;;;;;;11.68;4.53;;;15.80;99.90;;;;;;4940087;28;20051;-89
2022/10/04 10:43:22;;;;;;;10.27;3.80;;;15.90;99.90;;;;;;4939978;28;20051;-90
2022/10/04 10:46:04;;;;;;;12.05;3.53;;;16.10;99.90;;;;;;4952458;28;20053;-89
2022/10/04 10:48:49;;;;;;;11.07;3.65;;;16.20;99.90;;;;;;4958426;28;20529;-90
2022/10/04 10:51:22;;;;;;;10.20;3.50;;;16.30;99.90;;;;;;4974281;28;20081;-90
2022/10/04 10:53:59;;;;;;;;;;;16.30;99.90;;;;;;4959584;28;20100;-91
2022/10/04 10:56:45;;;;;;;8.02;4.28;;;16.30;99.90;;;;;;4958311;28;20438;-89
2022/10/04 10:59:26;;;;;;;7.90;3.20;;;16.40;99.90;;;;;;4958838;28;20049;-89
2022/10/04 11:02:18;;;;;;;11.07;3.10;;;16.50;99.90;;;;;;4958137;28;20090;-90
2022/10/04 11:05:17;;;;;;;9.35;3.00;;;16.40;99.90;;;;;;4958642;28;20483;-92
2022/10/04 11:07:52;;;;;;;10.70;3.63;;;16.40;99.90;;;;;;4958459;28;20352;-90
2022/10/04 11:10:40;;;;;;;10.63;3.72;;;16.40;99.90;;;;;;4957063;28;20049;-89
2022/10/04 11:13:28;;;;;;;12.80;3.60;;;16.50;99.90;;;;;;4958331;28;20555;-89
2022/10/04 11:16:30;;;;;;;11.05;3.60;;;16.50;99.90;;;;;;4954196;28;20551;-89
2022/10/04 11:19:05;;;;;;;14.98;3.00;;;16.50;99.90;;;;;;4939625;28;20113;-89
2022/10/04 11:22:15;;;;;;;6.07;2.80;;;16.50;99.90;;;;;;4937423;28;20062;-90
2022/10/04 11:24:55;;;;;;;10.52;3.30;;;16.50;99.90;;;;;;4937872;28;20122;-90
2022/10/04 11:27:27;;;;;;;13.00;3.67;;;16.60;99.90;;;;;;4938630;28;20047;-90
2022/10/04 11:30:11;;;;;;;13.05;3.97;;;16.60;99.90;;;;;;4938856;28;20047;-89
2022/10/04 11:32:58;;;;;;;9.10;3.25;;;16.60;99.90;;;;;;4939547;28;20137;-92
2022/10/04 11:36:00;;;;;;;11.07;3.35;;;16.70;99.90;;;;;;4938487;28;20510;-89
2022/10/04 11:38:30;;;;;;;9.13;3.25;;;16.70;99.90;;;;;;4938329;28;20047;-89
2022/10/04 11:41:30;;;;;;;8.00;2.92;;;16.70;99.90;;;;;;4938064;28;20047;-89
2022/10/04 11:44:28;;;;;;;10.77;2.85;;;16.70;99.90;;;;;;4938832;28;20047;-89
2022/10/04 11:47:21;;;;;;;10.48;3.47;;;16.70;99.90;;;;;;4938665;28;20057;-90
2022/10/04 11:49:55;;;;;;;;;;;16.70;99.90;;;;;;4938334;28;20050;-89
2022/10/04 11:53:02;;;;;;;11.60;4.30;;;16.60;99.90;;;;;;4937953;28;20305;-89
2022/10/04 11:55:36;;;;;;;10.18;4.38;;;16.60;99.90;;;;;;4938640;28;20039;-89
2022/10/04 11:58:18;;;;;;;9.93;3.38;;;16.60;99.90;;;;;;4938744;28;20047;-89
2022/10/04 12:00:51;;;;;;;11.57;3.22;;;16.60;99.90;;;;;;4938246;28;20194;-89
2022/10/04 12:03:37;;;;;;;11.98;3.35;;;16.70;99.90;;;;;;4938796;28;20046;-90
2022/10/04 12:06:36;;;;;;;9.45;3.00;;;16.70;99.90;;;;;;4951250;28;20050;-90
2022/10/04 12:09:19;;;;;;;10.90;2.85;;;16.70;99.90;;;;;;4938650;28;20200;-89
2022/10/04 12:14:58;;;;;;;10.50;3.50;;;16.80;99.90;;;;;;4954265;28;20289;-90
2022/10/04 12:17:40;;;;;;;15.95;3.40;;;16.90;99.90;;;;;;4938100;28;20055;-88
2022/10/04 12:20:27;;;;;;;9.35;3.90;;;16.90;99.90;;;;;;4937061;28;20138;-88
2022/10/04 12:23:05;;;;;;;7.45;2.75;;;17.00;99.90;;;;;;4937722;28;20055;-90
2022/10/04 12:25:48;;;;;;;6.78;2.67;;;17.00;99.90;;;;;;4938239;28;20177;-90
2022/10/04 12:28:41;;;;;;;10.70;3.10;;;17.00;99.90;;;;;;4937511;28;20055;-89
2022/10/04 12:31:34;;;;;;;9.93;3.35;;;17.00;99.90;;;;;;4937800;28;20049;-90
2022/10/04 12:34:13;;;;;;;11.10;3.70;;;16.90;99.90;;;;;;4937166;28;20278;-90
2022/10/04 12:36:59;;;;;;;8.50;3.67;;;16.90;99.90;;;;;;4968868;28;20423;-90
2022/10/04 12:39:50;;;;;;;12.75;4.28;;;16.90;99.90;;;;;;4937670;28;20137;-91
2022/10/04 12:42:41;;;;;;;9.07;3.80;;;17.00;99.90;;;;;;4937346;28;20077;-90
2022/10/04 12:45:19;;;;;;;14.73;3.70;;;16.90;99.90;;;;;;4937197;28;20035;-90
2022/10/04 12:47:56;;;;;;;11.85;3.90;;;16.90;99.90;;;;;;4952867;28;20105;-90
2022/10/04 12:50:52;;;;;;;13.73;4.15;;;17.00;99.90;;;;;;4952952;28;20399;-90
2022/10/04 12:53:37;;;;;;;10.55;3.97;;;17.00;99.90;;;;;;4953539;28;20074;-90
2022/10/04 12:56:20;;;;;;;10.90;4.18;;;17.10;99.90;;;;;;4952354;28;20483;-90
2022/10/04 12:59:04;;;;;;;9.60;4.10;;;17.10;99.90;;;;;;4952919;28;20558;-89
2022/10/04 13:02:03;;;;;;;13.25;4.18;;;17.00;99.90;;;;;;4952137;28;20046;-90
2022/10/04 13:04:38;;;;;;;14.95;5.45;;;17.00;99.90;;;;;;4937699;28;20072;-89
2022/10/04 13:07:03;;;;;;;12.23;4.90;;;16.90;99.90;;;;;;4952973;28;20034;-90
2022/10/04 13:09:36;;;;;;;11.68;4.28;;;16.80;99.90;;;;;;4936293;28;20050;-90
2022/10/04 13:12:11;;;;;;;15.32;5.40;;;16.70;99.90;;;;;;4936911;28;20054;-90
2022/10/04 13:14:44;;;;;;;14.18;5.18;;;16.70;99.90;;;;;;4953552;28;20038;-89
2022/10/04 13:17:24;;;;;;;13.00;5.03;;;16.70;99.90;;;;;;4952420;28;20106;-90
2022/10/04 13:20:19;;;;;;;12.65;5.65;;;16.70;99.90;;;;;;4952530;28;20125;-90
2022/10/04 13:23:02;;;;;;;13.63;5.45;;;16.80;99.90;;;;;;4952646;28;20137;-91
2022/10/04 13:25:40;;;;;;;10.23;4.85;;;16.80;99.90;;;;;;4961636;23;20057;-89
2022/10/04 13:28:26;;;;;;;15.48;6.03;;;16.80;99.90;;;;;;4972126;28;20053;-89
2022/10/04 13:31:03;;;;;;;9.27;5.22;;;16.80;99.90;;;;;;4971783;28;20046;-89
2022/10/04 13:33:41;;;;;;;16.35;5.68;;;16.90;99.90;;;;;;4955824;28;20053;-89
2022/10/04 13:36:30;;;;;;;14.55;5.28;;;16.90;99.90;;;;;;4970423;28;20529;-89
2022/10/04 13:39:01;;;;;;;10.98;4.88;;;16.90;99.90;;;;;;4956045;28;20046;-89
2022/10/04 13:41:27;;;;;;;10.23;5.45;;;16.90;99.90;;;;;;4972100;28;20088;-90
2022/10/04 13:44:12;;;;;;;15.60;6.10;;;16.90;99.90;;;;;;4971960;28;20613;-90
2022/10/04 13:47:07;;;;;;;11.32;5.25;;;16.90;99.90;;;;;;4972165;28;20046;-90
2022/10/04 13:50:00;;;;;;;9.50;5.00;;;16.90;99.90;;;;;;4988817;28;20055;-90